createdAt,value
2023-05-04T00:00:30.487Z,5.80
2023-05-04T00:02:58.688Z,5.55
2023-05-04T00:05:26.701Z,5.72
2023-05-04T00:07:54.402Z,5.77
2023-05-04T00:10:22.418Z,6.38
2023-05-04T00:12:50.717Z,5.50
2023-05-04T00:15:18.497Z,5.50
2023-05-04T00:17:47.636Z,6.00
2023-05-04T00:20:15.980Z,5.77
2023-05-04T00:22:43.821Z,5.90
2023-05-04T00:25:11.698Z,5.83
2023-05-04T00:27:39.789Z,5.77
2023-05-04T00:30:08.910Z,6.47
2023-05-04T00:32:36.709Z,5.60
2023-05-04T00:35:07.144Z,5.90
2023-05-04T00:37:35.829Z,6.37
2023-05-04T00:40:04.032Z,6.40
2023-05-04T00:42:31.868Z,6.83
2023-05-04T00:44:59.480Z,5.90
2023-05-04T00:47:27.393Z,6.40
2023-05-04T00:49:55.303Z,5.97
2023-05-04T00:52:25.284Z,6.07
2023-05-04T00:54:54.205Z,5.70
2023-05-04T00:57:21.943Z,5.80
2023-05-04T00:59:49.833Z,6.50
2023-05-04T01:02:18.003Z,6.27
2023-05-04T01:04:45.860Z,6.47
2023-05-04T01:07:20.952Z,5.88
2023-05-04T01:09:52.065Z,5.43
2023-05-04T01:12:31.598Z,5.73
2023-05-04T01:14:59.833Z,5.83
2023-05-04T01:17:28.117Z,5.87
2023-05-04T01:19:55.886Z,6.03
2023-05-04T01:22:25.154Z,6.22
2023-05-04T01:24:54.875Z,6.70
2023-05-04T01:27:25.657Z,5.80
2023-05-04T01:29:58.465Z,6.10
2023-05-04T01:32:27.427Z,5.67
2023-05-04T01:34:55.590Z,6.28
2023-05-04T01:37:24.790Z,6.23
2023-05-04T01:39:53.412Z,5.67
2023-05-04T01:42:21.198Z,6.07
2023-05-04T01:44:48.894Z,5.80
2023-05-04T01:47:18.524Z,6.07
2023-05-04T01:49:46.272Z,5.73
2023-05-04T01:52:14.220Z,6.17
2023-05-04T01:54:43.345Z,5.37
2023-05-04T01:57:11.076Z,6.97
2023-05-04T01:59:38.948Z,5.87
2023-05-04T02:02:06.765Z,5.63
2023-05-04T02:04:35.782Z,6.03
2023-05-04T02:07:03.837Z,5.70
2023-05-04T02:09:31.768Z,5.33
2023-05-04T02:12:00.850Z,5.72
2023-05-04T02:14:28.708Z,6.07
2023-05-04T02:16:56.706Z,5.43
2023-05-04T02:19:24.524Z,5.30
2023-05-04T02:21:53.608Z,5.27
2023-05-04T02:24:22.919Z,5.40
2023-05-04T02:26:51.937Z,5.30
2023-05-04T02:29:21.653Z,4.90
2023-05-04T02:31:49.420Z,5.00
2023-05-04T02:34:17.607Z,4.57
2023-05-04T02:36:48.068Z,5.33
2023-05-04T02:39:16.274Z,5.27
2023-05-04T02:41:44.065Z,5.67
2023-05-04T02:44:12.307Z,5.10
2023-05-04T02:46:41.751Z,5.10
2023-05-04T02:49:09.876Z,5.17
2023-05-04T02:51:37.514Z,6.60
2023-05-04T02:54:06.543Z,5.87
2023-05-04T02:56:34.270Z,5.40
2023-05-04T02:59:01.932Z,5.43
2023-05-04T03:01:31.195Z,5.23
2023-05-04T03:04:02.103Z,5.50
2023-05-04T03:06:30.778Z,5.53
2023-05-04T03:08:58.414Z,5.50
2023-05-04T03:11:26.616Z,6.50
2023-05-04T03:13:54.325Z,5.83
2023-05-04T03:16:22.489Z,6.10
2023-05-04T03:21:38.555Z,5.70
2023-05-04T03:24:06.902Z,5.73
2023-05-04T03:26:34.697Z,5.93
2023-05-04T03:29:03.152Z,5.63
2023-05-04T03:31:31.293Z,6.20
2023-05-04T03:33:59.164Z,5.80
2023-05-04T03:36:28.237Z,6.00
2023-05-04T03:38:57.444Z,5.77
2023-05-04T03:41:25.545Z,6.80
2023-05-04T03:43:53.261Z,6.93
2023-05-04T03:46:21.059Z,6.37
2023-05-04T03:48:48.808Z,6.00
2023-05-04T03:51:18.850Z,6.43
2023-05-04T03:53:46.734Z,6.30
2023-05-04T03:56:19.158Z,6.33
2023-05-04T03:58:47.650Z,6.63
2023-05-04T04:01:19.141Z,7.70
2023-05-04T04:03:47.075Z,8.17
2023-05-04T04:06:15.043Z,12.47
2023-05-04T04:08:42.817Z,7.80
2023-05-04T04:11:10.482Z,7.60
2023-05-04T04:13:40.137Z,8.80
2023-05-04T04:16:08.381Z,9.73
2023-05-04T04:18:36.098Z,10.13
2023-05-04T04:21:03.862Z,10.33
2023-05-04T04:23:31.827Z,10.00
2023-05-04T04:25:59.510Z,10.43
2023-05-04T04:28:28.319Z,11.33
2023-05-04T04:30:57.892Z,11.00
2023-05-04T04:33:25.835Z,13.32
2023-05-04T04:35:54.516Z,16.07
2023-05-04T04:38:22.345Z,11.27
2023-05-04T04:40:50.890Z,10.07
2023-05-04T04:43:18.599Z,9.40
2023-05-04T04:45:46.804Z,11.40
2023-05-04T04:48:15.868Z,10.65
2023-05-04T04:50:43.860Z,9.43
2023-05-04T04:53:11.721Z,10.43
2023-05-04T04:55:39.496Z,10.20
2023-05-04T04:58:08.787Z,11.82
2023-05-04T05:00:37.162Z,13.23
2023-05-04T05:03:05.363Z,10.75
2023-05-04T05:05:35.086Z,10.70
2023-05-04T05:08:02.781Z,9.77
2023-05-04T05:10:30.762Z,9.65
2023-05-04T05:12:58.630Z,9.95
2023-05-04T05:15:26.342Z,7.68
2023-05-04T05:17:54.123Z,7.82
2023-05-04T05:20:23.530Z,6.82
2023-05-04T05:22:52.643Z,6.35
2023-05-04T05:25:20.567Z,5.80
2023-05-04T05:27:48.464Z,5.22
2023-05-04T05:30:16.900Z,5.05
2023-05-04T05:32:45.522Z,4.22
2023-05-04T05:35:14.322Z,4.85
2023-05-04T05:37:42.315Z,4.60
2023-05-04T05:40:12.420Z,4.82
2023-05-04T05:42:40.112Z,4.63
2023-05-04T05:45:10.055Z,4.32
2023-05-04T05:47:37.917Z,5.05
2023-05-04T05:50:06.533Z,4.20
2023-05-04T05:52:35.103Z,4.20
2023-05-04T05:55:03.200Z,4.05
2023-05-04T05:57:33.043Z,3.95
2023-05-04T06:00:00.889Z,3.85
2023-05-04T06:02:28.660Z,4.25
2023-05-04T06:04:56.527Z,4.18
2023-05-04T06:07:24.532Z,4.07
2023-05-04T06:09:52.242Z,3.75
2023-05-04T06:12:19.980Z,3.50
2023-05-04T06:14:49.090Z,3.70
2023-05-04T06:17:17.339Z,3.72
2023-05-04T06:19:45.920Z,3.33
2023-05-04T06:22:14.380Z,4.10
2023-05-04T06:24:41.986Z,3.17
2023-05-04T06:27:10.519Z,3.30
2023-05-04T06:29:40.295Z,3.60
2023-05-04T06:32:09.804Z,3.25
2023-05-04T06:34:37.934Z,3.83
2023-05-04T06:37:05.880Z,3.75
2023-05-04T06:39:34.190Z,3.78
2023-05-04T06:42:03.327Z,3.70
2023-05-04T06:44:38.353Z,3.67
2023-05-04T06:47:07.383Z,3.75
2023-05-04T06:49:36.420Z,3.38
2023-05-04T06:52:04.695Z,3.17
2023-05-04T06:54:32.828Z,3.90
2023-05-04T06:57:00.467Z,3.38
2023-05-04T06:59:28.983Z,3.63
2023-05-04T07:01:56.709Z,3.67
2023-05-04T07:04:25.071Z,3.08
2023-05-04T07:06:54.117Z,3.38
2023-05-04T07:09:22.523Z,3.80
2023-05-04T07:11:50.251Z,3.25
2023-05-04T07:14:17.976Z,3.78
2023-05-04T07:16:45.968Z,3.30
2023-05-04T07:19:14.308Z,3.10
2023-05-04T07:21:42.661Z,3.15
2023-05-04T07:24:11.822Z,3.78
2023-05-04T07:26:39.594Z,3.50
2023-05-04T07:29:07.686Z,3.67
2023-05-04T07:31:36.140Z,3.13
2023-05-04T07:34:04.017Z,3.15
2023-05-04T07:36:31.750Z,2.90
2023-05-04T07:39:00.275Z,3.33
2023-05-04T07:41:29.329Z,3.13
2023-05-04T07:43:57.110Z,3.42
2023-05-04T07:46:25.296Z,3.58
2023-05-04T07:48:53.209Z,2.90
2023-05-04T07:51:21.017Z,3.22
2023-05-04T07:53:49.042Z,3.20
2023-05-04T07:56:17.216Z,3.60
2023-05-04T07:58:47.469Z,3.35
2023-05-04T08:01:15.405Z,3.15
2023-05-04T08:03:44.054Z,3.35
2023-05-04T08:06:12.869Z,3.03
2023-05-04T08:08:40.704Z,2.70
2023-05-04T08:11:19.283Z,3.15
2023-05-04T08:13:50.514Z,2.97
2023-05-04T08:16:18.509Z,2.78
2023-05-04T08:18:46.360Z,3.15
2023-05-04T08:21:14.547Z,3.20
2023-05-04T08:23:42.432Z,3.35
2023-05-04T08:26:10.624Z,3.35
2023-05-04T08:28:39.756Z,3.10
2023-05-04T08:31:08.979Z,2.50
2023-05-04T08:33:37.273Z,3.22
2023-05-04T08:36:05.739Z,2.70
2023-05-04T08:38:33.548Z,3.10
2023-05-04T08:41:04.179Z,2.90
2023-05-04T08:43:32.211Z,3.00
2023-05-04T08:45:59.967Z,2.92
2023-05-04T08:48:29.084Z,3.03
2023-05-04T08:50:58.818Z,3.15
2023-05-04T08:53:27.848Z,3.00
2023-05-04T08:55:56.836Z,3.25
2023-05-04T08:58:26.010Z,3.00
2023-05-04T09:00:54.741Z,2.97
2023-05-04T09:03:22.711Z,3.03
2023-05-04T09:05:52.768Z,2.97
2023-05-04T09:08:20.951Z,3.60
2023-05-04T09:10:48.769Z,3.42
2023-05-04T09:13:16.895Z,2.88
2023-05-04T09:15:54.862Z,3.47
2023-05-04T09:18:23.361Z,2.72
2023-05-04T09:20:52.473Z,3.35
2023-05-04T09:23:22.425Z,3.47
2023-05-04T09:25:51.042Z,3.63
2023-05-04T09:28:19.981Z,3.33
2023-05-04T09:30:49.014Z,3.00
2023-05-04T09:33:17.724Z,3.58
2023-05-04T09:35:45.520Z,3.20
2023-05-04T09:38:26.668Z,3.00
2023-05-04T09:40:54.512Z,3.45
2023-05-04T09:43:22.185Z,2.83
2023-05-04T09:45:50.175Z,3.53
2023-05-04T09:48:20.068Z,3.00
2023-05-04T09:50:53.750Z,2.95
2023-05-04T09:53:25.020Z,3.15
2023-05-04T09:56:04.408Z,3.55
2023-05-04T09:58:32.862Z,3.25
2023-05-04T10:01:01.906Z,3.30
2023-05-04T10:03:30.350Z,3.95
2023-05-04T10:05:59.405Z,3.30
2023-05-04T10:08:29.016Z,3.30
2023-05-04T10:10:58.164Z,3.70
2023-05-04T10:13:26.286Z,3.10
2023-05-04T10:16:03.912Z,3.10
2023-05-04T10:18:42.273Z,3.33
2023-05-04T10:21:24.639Z,3.38
2023-05-04T10:24:05.832Z,3.50
2023-05-04T10:27:00.485Z,3.42
2023-05-04T10:29:31.206Z,3.40
2023-05-04T10:31:59.620Z,3.58
2023-05-04T10:34:29.186Z,3.97
2023-05-04T10:36:57.657Z,3.50
2023-05-04T10:39:28.460Z,3.42
2023-05-04T10:42:01.456Z,3.50
2023-05-04T10:44:30.070Z,3.60
2023-05-04T10:46:59.792Z,4.00
2023-05-04T10:49:28.073Z,3.10
2023-05-04T10:52:06.846Z,3.30
2023-05-04T10:54:37.479Z,3.20
2023-05-04T10:57:07.117Z,3.47
2023-05-04T10:59:36.708Z,3.60
2023-05-04T11:02:05.533Z,3.30
2023-05-04T11:04:33.400Z,3.65
2023-05-04T11:07:02.246Z,2.95
2023-05-04T11:09:38.289Z,3.15
2023-05-04T11:12:06.478Z,2.97
2023-05-04T11:14:37.751Z,3.13
2023-05-04T11:17:26.654Z,3.30
2023-05-04T11:19:55.901Z,3.47
2023-05-04T11:22:24.008Z,4.00
2023-05-04T11:24:54.328Z,3.55
2023-05-04T11:27:24.817Z,4.65
2023-05-04T11:29:59.724Z,3.50
2023-05-04T11:32:36.010Z,3.28
2023-05-04T11:35:04.994Z,3.30
2023-05-04T11:37:39.247Z,3.80
2023-05-04T11:40:15.088Z,2.90
2023-05-04T11:42:43.818Z,3.30
2023-05-04T11:45:17.015Z,4.10
2023-05-04T11:47:45.338Z,4.00
2023-05-04T11:50:14.649Z,3.40
2023-05-04T11:52:43.680Z,3.30
2023-05-04T11:55:14.420Z,3.60
2023-05-04T11:57:42.147Z,3.40
2023-05-04T12:00:11.153Z,3.75
2023-05-04T12:02:39.313Z,3.40
2023-05-04T12:05:13.666Z,3.40
2023-05-04T12:07:41.484Z,3.42
2023-05-04T12:10:10.281Z,3.30
2023-05-04T12:12:39.450Z,3.35
2023-05-04T12:15:08.871Z,3.80
2023-05-04T12:17:43.223Z,3.85
2023-05-04T12:20:11.770Z,3.17
2023-05-04T12:22:40.515Z,3.28
2023-05-04T12:25:11.123Z,3.70
2023-05-04T12:27:43.230Z,3.20
2023-05-04T12:30:12.312Z,3.25
2023-05-04T12:32:40.145Z,3.22
2023-05-04T12:35:09.015Z,3.40
2023-05-04T12:37:37.907Z,3.38
2023-05-04T12:40:21.123Z,3.42
2023-05-04T12:42:56.627Z,3.15
2023-05-04T12:45:24.586Z,3.60
2023-05-04T12:47:52.408Z,3.60
2023-05-04T12:50:20.634Z,3.60
2023-05-04T12:52:48.459Z,3.25
2023-05-04T12:55:16.296Z,3.30
2023-05-04T12:57:44.906Z,3.78
2023-05-04T13:00:16.119Z,3.30
2023-05-04T13:02:44.461Z,3.30
2023-05-04T13:05:15.709Z,3.60
2023-05-04T13:07:44.441Z,3.70
2023-05-04T13:10:12.638Z,3.53
2023-05-04T13:12:40.447Z,3.33
2023-05-04T13:15:09.531Z,3.28
2023-05-04T13:17:39.014Z,3.17
2023-05-04T13:20:09.114Z,3.30
2023-05-04T13:22:37.290Z,3.10
2023-05-04T13:25:06.714Z,3.20
2023-05-04T13:27:35.088Z,3.25
2023-05-04T13:30:03.480Z,3.10
2023-05-04T13:32:34.236Z,3.30
2023-05-04T13:35:04.159Z,3.00
2023-05-04T13:37:32.348Z,2.88
2023-05-04T13:40:01.641Z,3.00
2023-05-04T13:42:29.738Z,3.42
2023-05-04T13:44:57.990Z,3.05
2023-05-04T13:47:25.718Z,2.97
2023-05-04T13:49:53.473Z,4.15
2023-05-04T13:52:22.513Z,4.20
2023-05-04T13:54:51.086Z,3.88
2023-05-04T13:57:18.765Z,4.30
2023-05-04T13:59:58.413Z,4.38
2023-05-04T14:02:38.623Z,3.78
2023-05-04T14:05:07.413Z,4.05
2023-05-04T14:07:36.959Z,4.05
2023-05-04T14:10:05.183Z,4.22
2023-05-04T14:12:33.073Z,4.30
2023-05-04T14:15:01.332Z,4.28
2023-05-04T14:17:29.254Z,4.60
2023-05-04T14:19:58.726Z,3.95
2023-05-04T14:22:26.559Z,3.78
2023-05-04T14:24:55.663Z,4.45
2023-05-04T14:27:23.895Z,4.40
2023-05-04T14:29:53.009Z,4.05
2023-05-04T14:32:20.990Z,4.60
2023-05-04T14:34:48.849Z,4.95
2023-05-04T14:37:16.738Z,3.97
2023-05-04T14:39:45.372Z,4.32
2023-05-04T14:42:14.482Z,4.03
2023-05-04T14:44:42.405Z,4.22
2023-05-04T14:47:10.226Z,4.75
2023-05-04T14:49:42.308Z,3.80
2023-05-04T14:52:11.229Z,4.20
2023-05-04T14:54:38.900Z,4.60
2023-05-04T14:57:08.913Z,4.25
2023-05-04T14:59:38.570Z,4.53
2023-05-04T15:02:07.972Z,4.90
2023-05-04T15:04:36.018Z,4.53
2023-05-04T15:07:05.267Z,4.97
2023-05-04T15:09:33.676Z,4.22
2023-05-04T15:12:01.649Z,4.82
2023-05-04T15:14:29.519Z,4.43
2023-05-04T15:16:58.627Z,4.07
2023-05-04T15:19:26.463Z,4.28
2023-05-04T15:21:55.579Z,3.92
2023-05-04T15:24:23.358Z,4.00
2023-05-04T15:26:51.099Z,4.07
2023-05-04T15:29:18.989Z,5.15
2023-05-04T15:31:46.905Z,4.68
2023-05-04T15:34:18.442Z,4.18
2023-05-04T15:36:46.691Z,4.35
2023-05-04T15:39:14.561Z,4.60
2023-05-04T15:41:42.632Z,4.97
2023-05-04T15:44:10.614Z,4.68
2023-05-04T15:46:39.085Z,4.57
2023-05-04T15:49:07.051Z,5.18
2023-05-04T15:51:36.876Z,4.60
2023-05-04T15:54:04.760Z,5.00
2023-05-04T15:56:32.662Z,5.20
2023-05-04T15:59:00.720Z,4.82
2023-05-04T16:01:28.518Z,4.93
2023-05-04T16:03:59.315Z,4.45
2023-05-04T16:06:27.369Z,4.75
2023-05-04T16:08:56.717Z,4.60
2023-05-04T16:11:24.433Z,5.82
2023-05-04T16:13:53.124Z,4.70
2023-05-04T16:16:20.971Z,4.80
2023-05-04T16:18:48.701Z,4.47
2023-05-04T16:21:16.520Z,5.10
2023-05-04T16:23:44.431Z,4.38
2023-05-04T16:26:13.835Z,4.55
2023-05-04T16:28:42.385Z,4.40
2023-05-04T16:31:11.987Z,4.60
2023-05-04T16:33:41.362Z,5.60
2023-05-04T16:36:10.159Z,4.85
2023-05-04T16:38:38.030Z,4.88
2023-05-04T16:41:06.342Z,4.22
2023-05-04T16:43:35.346Z,4.57
2023-05-04T16:46:04.485Z,4.10
2023-05-04T16:48:32.897Z,4.43
2023-05-04T16:51:01.098Z,3.72
2023-05-04T16:53:29.398Z,4.40
2023-05-04T16:55:57.162Z,4.40
2023-05-04T16:58:25.112Z,5.05
2023-05-04T17:00:54.190Z,4.93
2023-05-04T17:03:23.030Z,5.28
2023-05-04T17:05:51.000Z,5.07
2023-05-04T17:08:19.636Z,5.20
2023-05-04T17:10:47.530Z,4.82
2023-05-04T17:13:15.240Z,5.18
2023-05-04T17:15:43.076Z,4.63
2023-05-04T17:18:12.902Z,5.00
2023-05-04T17:20:40.795Z,4.80
2023-05-04T17:23:08.695Z,5.68
2023-05-04T17:25:37.470Z,5.35
2023-05-04T17:28:05.954Z,4.88
2023-05-04T17:30:35.693Z,4.90
2023-05-04T17:33:03.468Z,5.75
2023-05-04T17:35:33.466Z,4.68
2023-05-04T17:38:01.613Z,4.50
2023-05-04T17:40:29.814Z,5.18
2023-05-04T17:42:57.752Z,4.88
2023-05-04T17:45:25.705Z,4.93
2023-05-04T17:47:53.968Z,4.57
2023-05-04T17:50:22.395Z,4.13
2023-05-04T17:52:56.400Z,4.65
2023-05-04T17:55:25.262Z,4.40
2023-05-04T17:57:54.260Z,4.65
2023-05-04T18:00:22.805Z,4.95
2023-05-04T18:02:51.319Z,4.93
2023-05-04T18:05:19.680Z,4.75
2023-05-04T18:07:47.371Z,4.95
2023-05-04T18:10:16.731Z,5.03
2023-05-04T18:12:45.332Z,4.93
2023-05-04T18:15:13.172Z,4.60
2023-05-04T18:17:40.990Z,4.43
2023-05-04T18:20:10.555Z,4.70
2023-05-04T18:22:38.520Z,4.10
2023-05-04T18:25:07.363Z,4.05
2023-05-04T18:27:37.198Z,4.10
2023-05-04T18:30:07.263Z,3.47
2023-05-04T18:32:35.507Z,4.03
2023-05-04T18:35:03.844Z,3.78
2023-05-04T18:37:33.276Z,4.30
2023-05-04T18:40:01.199Z,3.10
2023-05-04T18:42:28.893Z,3.13
2023-05-04T18:44:57.996Z,3.30
2023-05-04T18:47:26.883Z,3.47
2023-05-04T18:49:56.177Z,3.63
2023-05-04T18:52:24.055Z,3.30
2023-05-04T18:54:51.936Z,3.70
2023-05-04T18:57:19.758Z,3.67
2023-05-04T18:59:47.766Z,3.90
2023-05-04T19:02:17.606Z,5.18
2023-05-04T19:04:46.829Z,3.60
2023-05-04T19:07:15.275Z,3.30
2023-05-04T19:09:42.984Z,4.43
2023-05-04T19:12:10.939Z,3.95
2023-05-04T19:14:38.740Z,4.00
2023-05-04T19:17:06.901Z,3.63
2023-05-04T19:19:37.664Z,3.88
2023-05-04T19:22:05.490Z,3.47
2023-05-04T19:24:34.355Z,3.28
2023-05-04T19:27:02.585Z,3.10
2023-05-04T19:29:30.417Z,3.47
2023-05-04T19:31:59.550Z,4.03
2023-05-04T19:34:29.275Z,3.35
2023-05-04T19:36:59.330Z,3.40
2023-05-04T19:39:27.058Z,3.30
2023-05-04T19:41:55.508Z,3.33
2023-05-04T19:44:23.378Z,3.67
2023-05-04T19:46:53.064Z,3.40
2023-05-04T19:49:21.730Z,3.40
2023-05-04T19:51:49.955Z,4.63
2023-05-04T19:54:19.040Z,3.70
2023-05-04T19:56:46.889Z,3.35
2023-05-04T19:59:15.005Z,3.53
2023-05-04T20:01:43.268Z,3.38
2023-05-04T20:04:12.286Z,3.22
2023-05-04T20:06:41.919Z,3.45
2023-05-04T20:09:10.673Z,2.92
2023-05-04T20:11:40.170Z,3.38
2023-05-04T20:14:08.026Z,3.30
2023-05-04T20:16:36.148Z,3.08
2023-05-04T20:19:04.233Z,3.58
2023-05-04T20:21:32.957Z,3.57
2023-05-04T20:24:01.163Z,4.10
2023-05-04T20:26:28.945Z,3.40
2023-05-04T20:28:57.959Z,3.33
2023-05-04T20:31:25.641Z,4.00
2023-05-04T20:33:53.435Z,4.05
2023-05-04T20:36:21.828Z,3.65
2023-05-04T20:38:49.546Z,3.65
2023-05-04T20:41:17.388Z,3.70
2023-05-04T20:43:45.208Z,3.35
2023-05-04T20:46:14.352Z,4.07
2023-05-04T20:48:42.888Z,4.00
2023-05-04T20:51:14.768Z,3.60
2023-05-04T20:53:43.154Z,3.70
2023-05-04T20:56:11.467Z,3.22
2023-05-04T20:58:39.316Z,4.00
2023-05-04T21:01:07.454Z,3.40
2023-05-04T21:03:37.430Z,3.13
2023-05-04T21:06:05.989Z,3.40
2023-05-04T21:08:33.953Z,3.53
2023-05-04T21:11:01.802Z,4.03
2023-05-04T21:13:30.000Z,3.40
2023-05-04T21:15:59.570Z,3.58
2023-05-04T21:18:27.505Z,3.85
2023-05-04T21:20:56.809Z,3.63
2023-05-04T21:23:25.378Z,3.95
2023-05-04T21:26:00.908Z,3.38
2023-05-04T21:28:28.900Z,3.65
2023-05-04T21:30:57.335Z,3.35
2023-05-04T21:33:25.097Z,3.35
2023-05-04T21:35:52.796Z,3.10
2023-05-04T21:38:22.576Z,3.55
2023-05-04T21:40:50.574Z,3.05
2023-05-04T21:43:18.789Z,3.50
2023-05-04T21:45:46.510Z,3.45
2023-05-04T21:48:14.768Z,3.17
2023-05-04T21:50:42.500Z,3.60
2023-05-04T21:53:11.179Z,2.85
2023-05-04T21:55:40.655Z,2.80
2023-05-04T21:58:08.852Z,2.50
2023-05-04T22:00:36.662Z,2.08
2023-05-04T22:03:04.467Z,2.15
2023-05-04T22:05:32.412Z,1.98
2023-05-04T22:08:00.795Z,2.20
2023-05-04T22:10:29.306Z,2.10
2023-05-04T22:12:58.934Z,2.42
2023-05-04T22:15:34.462Z,2.40
2023-05-04T22:18:06.204Z,2.08
2023-05-04T22:20:34.601Z,2.10
2023-05-04T22:23:02.404Z,1.90
2023-05-04T22:25:30.187Z,1.95
2023-05-04T22:27:59.421Z,2.20
2023-05-04T22:30:28.205Z,2.58
2023-05-04T22:32:56.997Z,2.25
2023-05-04T22:35:25.423Z,2.20
2023-05-04T22:37:53.781Z,1.90
2023-05-04T22:40:21.621Z,1.85
2023-05-04T22:42:49.425Z,2.03
2023-05-04T22:45:19.665Z,2.10
2023-05-04T22:47:47.595Z,2.40
2023-05-04T22:50:15.463Z,2.42
2023-05-04T22:52:43.367Z,1.92
2023-05-04T22:55:11.635Z,2.40
2023-05-04T22:57:39.302Z,1.90
2023-05-04T23:00:09.472Z,1.70
2023-05-04T23:02:38.989Z,1.90
2023-05-04T23:05:08.913Z,2.42
2023-05-04T23:07:36.755Z,1.80
2023-05-04T23:10:05.058Z,2.20
2023-05-04T23:12:33.317Z,2.13
2023-05-04T23:15:01.264Z,1.70
2023-05-04T23:17:29.047Z,2.20
2023-05-04T23:19:58.508Z,1.83
2023-05-04T23:22:26.451Z,1.80
2023-05-04T23:24:57.243Z,1.83
2023-05-04T23:27:25.057Z,2.08
2023-05-04T23:29:52.826Z,1.90
2023-05-04T23:32:20.602Z,1.80
2023-05-04T23:34:48.387Z,1.83
2023-05-04T23:37:17.498Z,1.90
2023-05-04T23:39:46.983Z,2.20
2023-05-04T23:42:14.829Z,1.83
2023-05-04T23:44:42.607Z,2.00
2023-05-04T23:47:10.538Z,2.30
2023-05-04T23:49:39.176Z,1.80
2023-05-04T23:52:07.122Z,1.80
2023-05-04T23:54:36.524Z,1.90
2023-05-04T23:57:04.989Z,1.90
2023-05-04T23:59:33.235Z,2.35
